Terminal Aerodrome Forecast
Issued by NWS

Current Version | Previous Version | Text Only | Print | Product List | Glossary Off
Versions: 1 2 3 4 5 6 7 8 9 10 11 12 13 14 15 16

000
FTUS41 KPBZ 261741 AAA
TAFHLG
TAF AMD
KHLG 261741Z 2618/2718 29010KT P6SM OVC030
     FM261900 26012KT 5SM -SHRA OVC030
     FM262100 27012G20KT P6SM VCSH OVC025
     FM262300 27010KT P6SM BKN020
     FM270200 27007KT P6SM BKN050
     FM271300 22006KT P6SM FEW250=

USA.gov is the U.S. government's official web portal to all federal, state and local government web resources and services.